Latest Weather Observations for Melbourne (Olympic Park)

IDV60901

Issued at 2:21 am EST Saturday 20 August 2022 (issued every 10 minutes, with the page automatically refreshed every 10 minutes)

About weather observations | Map of Melbourne area stations | Latest observations for Melbourne area | Other Formats
Station Details ID: 086338 Name: MELBOURNE (OLYMPIC PARK) Lat: -37.83 Lon: 144.98 Height: 7.53 m
Data from the previous 72 hours. | See also: Recent months at Melbourne (Olympic Park)
Date/Time
EST
Temp
°C
App
Temp
°C
Dew
Point
°C
Rel
Hum
%
Delta-T
°C
Wind Press
QNH
hPa
Press
MSL
hPa
Rain since
9am
mm
Dir  Spd
km/h
Gust
km/h
Spd
kts
Gust
kts
20/02:00am 12.0 8.9 7.3 73 2.3 N 13 22 7 12 1014.0 1014.0 1.6
20/01:30am 12.0 8.5 7.3 73 2.3 N 15 22 8 12 1013.9 1013.9 1.6
20/01:00am 12.0 8.9 7.1 72 2.4 N 13 20 7 11 1014.0 1014.0 1.6
20/12:30am 12.0 8.1 7.3 73 2.3 NNW 17 28 9 15 1013.9 1013.9 1.6
20/12:00am 12.0 8.1 7.3 73 2.3 N 17 26 9 14 1013.9 1013.9 1.6
 
Date/Time
EST
Temp
°C
App
Temp
°C
Dew
Point
°C
Rel
Hum
%
Delta-T
°C
Wind Press
QNH
hPa
Press
MSL
hPa
Rain since
9am
mm
Dir  Spd
km/h
Gust
km/h
Spd
kts
Gust
kts
19/11:30pm 11.8 8.4 7.5 75 2.1 N 15 20 8 11 1014.2 1014.2 1.6
19/11:00pm 12.2 8.3 7.1 71 2.5 N 17 32 9 17 1014.6 1014.6 1.2
19/10:30pm 12.8 8.2 6.6 66 3.0 NNW 20 28 11 15 1014.9 1014.9 1.0
19/10:00pm 12.6 8.3 6.9 68 2.7 N 19 30 10 16 1015.2 1015.2 1.0
19/09:30pm 12.2 8.3 7.3 72 2.4 N 17 26 9 14 1015.3 1015.3 0.8
19/09:00pm 12.2 8.7 7.1 71 2.4 N 15 24 8 13 1015.4 1015.4 0.8
19/08:30pm 11.8 9.5 7.3 74 2.2 N 9 17 5 9 1015.4 1015.4 0.6
19/08:00pm 12.2 9.3 6.7 69 2.6 N 11 19 6 10 1015.4 1015.4 0.4
19/07:30pm 13.4 9.4 4.8 56 4.0 NNW 15 20 8 11 1015.4 1015.4 0.0
19/07:00pm 13.7 9.6 4.3 53 4.3 NNW 15 20 8 11 1015.3 1015.3 0.0
19/06:30pm 14.0 9.1 4.0 51 4.6 NNW 19 37 10 20 1015.1 1015.1 0.0
19/06:00pm 14.4 9.4 3.8 49 4.8 NNW 19 28 10 15 1014.8 1014.8 0.0
19/05:30pm 14.9 11.3 3.1 45 5.3 N 11 17 6 9 1014.6 1014.6 0.0
19/05:00pm 15.1 12.0 3.6 46 5.2 NNW 9 17 5 9 1014.4 1014.4 0.0
19/04:30pm 15.0 11.8 3.2 45 5.3 NW 9 15 5 8 1014.5 1014.5 0.0
19/04:00pm 15.3 11.7 3.1 44 5.5 NW 11 17 6 9 1014.3 1014.3 0.0
19/03:30pm 15.1 11.6 3.6 46 5.2 NW 11 20 6 11 1014.3 1014.3 0.0
19/03:00pm 15.4 11.5 3.2 44 5.5 NNW 13 22 7 12 1014.3 1014.3 0.0
19/02:30pm 15.6 12.5 3.4 44 5.6 NW 9 17 5 9 1014.4 1014.4 0.0
19/02:00pm 15.3 11.6 2.5 42 5.7 W 11 19 6 10 1014.6 1014.6 0.0
19/01:30pm 14.9 10.5 2.8 44 5.4 NW 15 24 8 13 1014.7 1014.7 0.0
19/01:00pm 14.8 10.8 2.7 44 5.4 W 13 22 7 12 1015.0 1015.0 0.0
19/12:30pm 14.7 11.3 4.1 49 4.9 WNW 11 19 6 10 1015.3 1015.3 0.0
19/12:00pm 13.6 9.8 3.7 51 4.5 WNW 13 24 7 13 1015.5 1015.5 0.0
19/11:30am 13.5 10.1 4.1 53 4.3 WNW 11 20 6 11 1015.7 1015.7 0.0
19/11:00am 13.0 9.3 4.2 55 4.0 W 13 22 7 12 1015.8 1015.8 0.0
19/10:30am 12.7 9.4 4.4 57 3.8 W 11 20 6 11 1015.8 1015.8 0.0
19/10:00am 12.2 9.2 5.8 65 3.0 WNW 11 20 6 11 1015.5 1015.5 0.0
19/09:30am 11.6 9.0 5.9 68 2.7 WNW 9 13 5 7 1015.4 1015.4 0.0
19/09:00am 10.5 7.8 5.5 71 2.3 WNW 9 15 5 8 1015.3 1015.3 12.4
19/08:30am 10.1 7.8 5.5 73 2.1 NW 7 13 4 7 1015.0 1015.0 12.4
19/08:00am 9.2 6.8 5.4 77 1.7 NW 7 13 4 7 1014.8 1014.8 12.4
19/07:30am 9.0 6.6 5.4 78 1.6 NW 7 11 4 6 1014.4 1014.4 12.4
19/07:00am 8.8 6.4 5.2 78 1.6 WNW 7 13 4 7 1013.9 1013.9 12.4
19/06:30am 8.9 6.8 5.6 80 1.5 NW 6 11 3 6 1013.6 1013.6 12.4
19/06:00am 9.2 7.1 5.6 78 1.6 NW 6 17 3 9 1013.3 1013.3 12.4
19/05:30am 9.6 6.6 6.0 78 1.7 WNW 11 20 6 11 1012.8 1012.8 12.4
19/05:00am 9.9 7.8 6.6 80 1.5 WNW 7 17 4 9 1012.5 1012.5 12.4
19/04:30am 9.8 7.8 7.1 83 1.3 W 7 13 4 7 1012.1 1012.1 12.4
19/04:00am 10.3 8.6 7.5 83 1.3 W 6 11 3 6 1011.6 1011.6 12.4
19/03:30am 10.5 8.7 7.9 84 1.3 W 7 19 4 10 1011.4 1011.4 12.4
19/03:00am 10.6 8.8 8.0 84 1.3 WSW 7 17 4 9 1011.1 1011.1 12.4
19/02:30am 10.8 8.3 8.4 85 1.2 W 11 22 6 12 1011.0 1011.0 12.4
19/02:00am 10.8 9.3 9.1 89 0.8 W 7 17 4 9 1010.9 1010.9 12.4
19/01:30am 10.5 9.4 10.0 97 0.3 WNW 6 15 3 8 1010.7 1010.7 12.4
19/01:00am 10.4 9.3 9.9 97 0.3 NNW 6 11 3 6 1010.8 1010.8 12.4
19/12:30am 10.5 9.2 9.9 96 0.3 N 7 11 4 6 1010.4 1010.4 12.4
19/12:00am 10.7 9.2 10.4 98 0.2 N 9 11 5 6 1010.2 1010.2 12.4
 
Date/Time
EST
Temp
°C
App
Temp
°C
Dew
Point
°C
Rel
Hum
%
Delta-T
°C
Wind Press
QNH
hPa
Press
MSL
hPa
Rain since
9am
mm
Dir  Spd
km/h
Gust
km/h
Spd
kts
Gust
kts
18/11:30pm 10.4 10.6 10.4 100 0.0 CALM 0 0 0 0 1010.0 1010.0 12.4
18/11:00pm 10.8 9.8 10.2 96 0.3 NNW 6 11 3 6 1009.9 1009.9 12.4
18/10:53pm 10.8 9.8 10.3 97 0.3 NW 6 11 3 6 1010.0 1010.0 12.0
18/10:30pm 10.8 10.3 10.8 100 0.0 W 4 7 2 4 1009.9 1009.9 11.0
18/10:20pm 10.9 10.1 10.9 100 0.0 NNW 6 13 3 7 1009.6 1009.6 10.0
18/10:00pm 10.8 10.6 10.6 99 0.1 N 2 6 1 3 1009.4 1009.4 9.2
18/09:30pm 10.9 9.4 10.6 98 0.2 N 9 13 5 7 1009.2 1009.2 9.2
18/09:00pm 11.0 9.5 10.7 98 0.2 NNE 9 13 5 7 1008.9 1008.9 9.0
18/08:36pm 11.0 10.6 11.0 100 0.0 N 4 7 2 4 1009.1 1009.1 8.4
18/08:30pm 11.0 11.3 11.0 100 0.0 CALM 0 6 0 3 1009.2 1009.2 8.2
18/08:00pm 11.0 11.3 11.0 100 0.0 CALM 0 0 0 0 1009.3 1009.3 6.8
18/07:48pm 11.0 11.3 10.8 99 0.1 CALM 0 6 0 3 1009.1 1009.1 6.0
18/07:32pm 11.1 10.9 10.6 97 0.3 SW 2 7 1 4 1008.8 1008.8 5.6
18/07:30pm 11.1 10.9 10.6 97 0.3 SW 2 7 1 4 1008.8 1008.8 5.6
18/07:14pm 11.2 10.3 10.6 96 0.3 WNW 6 17 3 9 1008.9 1008.9 4.8
18/07:08pm 11.4 9.8 10.1 92 0.7 NW 9 17 5 9 1008.8 1008.8 4.6
18/07:00pm 11.4 9.8 10.1 92 0.7 NW 9 13 5 7 1008.7 1008.7 4.0
18/06:30pm 11.6 9.9 10.0 90 0.8 WSW 9 20 5 11 1008.3 1008.3 1.6
18/06:26pm 11.8 10.5 9.9 88 1.0 WSW 7 20 4 11 1008.2 1008.2 0.8
18/06:00pm 13.5 11.3 9.4 76 2.1 N 11 20 6 11 1007.6 1007.6 0.2
18/05:30pm 13.8 10.7 8.8 72 2.5 NNE 15 22 8 12 1006.6 1006.6 0.0
18/05:00pm 14.1 10.6 8.9 71 2.6 N 17 30 9 16 1006.1 1006.1 0.0
18/04:30pm 14.3 10.5 8.9 70 2.7 N 19 26 10 14 1006.2 1006.2 0.0
18/04:00pm 14.4 10.5 8.8 69 2.8 N 19 35 10 19 1006.4 1006.4 0.0
18/03:30pm 14.6 10.7 8.8 68 2.9 NNW 19 28 10 15 1006.2 1006.2 0.0
18/03:00pm 14.6 9.7 8.5 67 3.1 NNW 24 41 13 22 1006.0 1006.0 0.0
18/02:30pm 14.9 10.9 9.1 68 3.0 NNW 20 30 11 16 1006.2 1006.2 0.0
18/02:00pm 14.8 10.2 8.3 65 3.3 N 22 43 12 23 1006.0 1006.0 0.0
18/01:30pm 14.4 10.2 8.4 67 3.0 NNW 20 39 11 21 1006.5 1006.5 0.0
18/01:00pm 14.0 9.5 8.4 69 2.8 N 22 37 12 20 1006.7 1006.7 0.0
18/12:30pm 14.0 8.7 8.4 69 2.8 N 26 39 14 21 1006.5 1006.5 0.0
18/12:00pm 14.3 9.8 8.5 68 2.9 N 22 41 12 22 1006.9 1006.9 0.0
18/11:30am 14.1 9.5 8.3 68 2.9 NNW 22 43 12 23 1007.5 1007.5 0.0
18/11:16am 14.1 8.4 8.3 68 2.9 NNW 28 44 15 24 1007.9 1007.9 0.0
18/11:00am 14.1 9.9 8.3 68 2.9 NNW 20 43 11 23 1007.7 1007.7 0.0
18/10:30am 14.0 10.0 8.2 68 2.9 NW 19 35 10 19 1008.5 1008.5 0.0
18/10:00am 13.6 8.2 8.2 70 2.7 N 26 44 14 24 1007.3 1007.3 0.0
18/09:30am 13.9 7.8 8.1 68 2.9 N 30 48 16 26 1006.7 1006.7 0.0
18/09:08am 14.5 8.7 7.8 64 3.3 N 28 48 15 26 1006.7 1006.7 0.0
18/09:00am 14.4 9.3 7.7 64 3.3 N 24 46 13 25 1006.9 1006.9 1.2
18/08:30am 14.0 7.4 7.8 66 3.1 N 32 52 17 28 1007.6 1007.6 1.2
18/08:26am 14.1 8.3 7.9 66 3.1 N 28 46 15 25 1007.7 1007.7 1.2
18/08:00am 14.0 8.9 7.8 66 3.1 N 24 43 13 23 1008.0 1008.0 1.2
18/07:30am 13.7 9.0 7.9 68 2.9 NNW 22 44 12 24 1008.8 1008.8 1.2
18/07:00am 13.3 8.7 8.2 71 2.5 N 22 41 12 22 1008.0 1008.0 1.2
18/06:30am 13.2 7.9 8.3 72 2.4 N 26 44 14 24 1008.6 1008.6 1.2
18/06:14am 13.1 7.4 8.2 72 2.4 N 28 54 15 29 1008.6 1008.6 1.2
18/06:00am 13.0 8.4 8.3 73 2.3 N 22 37 12 20 1009.0 1009.0 1.2
18/05:30am 13.0 8.8 8.3 73 2.3 N 20 35 11 19 1009.5 1009.5 1.2
18/05:00am 12.9 8.4 8.4 74 2.2 N 22 39 12 21 1009.9 1009.9 1.2
18/04:30am 13.0 8.1 8.3 73 2.3 N 24 39 13 21 1009.8 1009.8 1.2
18/04:00am 13.0 8.4 8.3 73 2.3 N 22 33 12 18 1009.9 1009.9 1.2
18/03:30am 12.9 7.9 8.2 73 2.3 N 24 33 13 18 1010.9 1010.9 1.2
18/03:00am 13.0 8.8 8.3 73 2.3 NNW 20 37 11 20 1011.3 1011.3 1.2
18/02:30am 13.4 9.1 8.0 70 2.7 NNW 20 35 11 19 1011.3 1011.3 1.2
18/02:11am 13.8 8.0 8.0 68 2.9 N 28 48 15 26 1011.3 1011.3 1.2
18/02:00am 13.8 8.4 8.2 69 2.8 N 26 46 14 25 1011.3 1011.3 1.2
18/01:30am 14.0 9.8 8.2 68 2.9 N 20 37 11 20 1010.5 1010.5 1.2
18/01:04am 14.1 8.3 7.9 66 3.1 N 28 46 15 25 1010.4 1010.4 1.2
18/01:00am 14.1 9.1 8.1 67 3.0 N 24 35 13 19 1010.3 1010.3 1.2
18/12:30am 13.7 7.9 7.9 68 2.9 N 28 44 15 24 1010.6 1010.6 1.2
18/12:00am 13.7 9.1 8.1 69 2.8 N 22 35 12 19 1010.5 1010.5 1.2
 
Date/Time
EST
Temp
°C
App
Temp
°C
Dew
Point
°C
Rel
Hum
%
Delta-T
°C
Wind Press
QNH
hPa
Press
MSL
hPa
Rain since
9am
mm
Dir  Spd
km/h
Gust
km/h
Spd
kts
Gust
kts
17/11:30pm 13.5 9.3 8.4 71 2.5 N 20 35 11 19 1011.0 1011.0 1.2
17/11:00pm 13.2 8.4 8.9 75 2.2 N 24 39 13 21 1011.4 1011.4 1.2
17/10:30pm 12.8 9.1 9.4 80 1.7 N 19 35 10 19 1012.3 1012.3 1.2
17/10:00pm 12.4 8.8 9.8 84 1.3 N 19 30 10 16 1012.8 1012.8 1.0
17/09:30pm 12.4 8.5 9.4 82 1.5 N 20 33 11 18 1013.3 1013.3 0.8
17/09:00pm 12.4 7.7 9.4 82 1.5 N 24 37 13 20 1013.9 1013.9 0.6
17/08:30pm 12.5 8.6 9.3 81 1.6 N 20 30 11 16 1014.8 1014.8 0.0
17/08:00pm 12.6 7.8 8.9 78 1.9 N 24 39 13 21 1014.7 1014.7 0.0
17/07:30pm 13.2 8.2 7.9 70 2.6 N 24 44 13 24 1014.5 1014.5 0.0
17/07:00pm 13.0 8.0 8.1 72 2.4 N 24 39 13 21 1014.7 1014.7 0.0
17/06:30pm 12.9 8.3 8.0 72 2.4 N 22 39 12 21 1014.8 1014.8 0.0
17/06:00pm 13.1 9.5 8.2 72 2.4 N 17 32 9 17 1014.5 1014.5 0.0
17/05:30pm 13.5 8.3 7.3 66 3.0 N 24 39 13 21 1014.5 1014.5 0.0
17/05:00pm 13.7 9.4 7.2 65 3.2 N 19 37 10 20 1015.1 1015.1 0.0
17/04:30pm 14.0 9.6 7.3 64 3.3 N 20 32 11 17 1015.4 1015.4 0.0
17/04:00pm 14.1 9.7 7.4 64 3.3 N 20 35 11 19 1015.6 1015.6 0.0
17/03:30pm 14.3 9.4 7.1 62 3.5 N 22 33 12 18 1015.7 1015.7 0.0
17/03:00pm 14.5 9.3 7.1 61 3.6 N 24 32 13 17 1015.9 1015.9 0.0
17/02:30pm 14.9 10.0 7.0 59 3.9 N 22 35 12 19 1016.4 1016.4 0.0
17/02:00pm 15.0 9.8 7.1 59 3.9 N 24 43 13 23 1015.8 1015.8 0.0
17/01:30pm 15.0 10.1 6.8 58 4.0 N 22 35 12 19 1016.3 1016.3 0.0
17/01:00pm 14.2 9.2 6.3 59 3.8 N 22 32 12 17 1016.9 1016.9 0.0
17/12:30pm 14.3 9.7 6.6 60 3.7 N 20 30 11 16 1017.5 1017.5 0.0
17/12:00pm 13.5 9.3 5.9 60 3.6 N 17 30 9 16 1018.4 1018.4 0.0
17/11:30am 13.4 8.8 6.3 62 3.4 N 20 30 11 16 1018.5 1018.5 0.0
17/11:00am 13.2 8.6 6.3 63 3.3 N 20 30 11 16 1018.6 1018.6 0.0
17/10:30am 12.3 8.6 6.4 67 2.8 N 15 22 8 12 1019.0 1019.0 0.0
17/10:00am 11.1 7.7 5.8 70 2.4 N 13 17 7 9 1019.7 1019.7 0.0
17/09:30am 10.1 7.5 5.9 75 1.9 N 9 13 5 7 1019.7 1019.7 0.0
17/09:00am 9.4 5.9 5.6 77 1.7 NNW 13 20 7 11 1020.1 1020.1 1.8
17/08:30am 8.1 5.4 5.7 85 1.1 NNE 9 13 5 7 1019.9 1019.9 1.8
17/08:00am 7.4 4.3 5.5 88 0.8 NNE 11 15 6 8 1019.6 1019.6 1.8
17/07:30am 7.6 5.5 5.6 87 0.9 NNE 6 9 3 5 1019.9 1019.9 1.8
17/07:00am 7.1 4.8 5.7 91 0.6 NE 7 9 4 5 1019.6 1019.6 1.8
17/06:30am 7.1 4.1 5.9 92 0.5 NNE 11 15 6 8 1019.4 1019.4 1.8
17/06:00am 7.0 6.2 6.7 98 0.1 CALM 0 0 0 0 1019.3 1019.3 1.8
17/05:30am 7.1 6.4 7.0 99 0.0 CALM 0 4 0 2 1019.1 1019.1 1.8
17/05:00am 7.0 6.3 7.0 100 0.0 CALM 0 4 0 2 1018.9 1018.9 1.8
17/04:30am 7.4 6.7 7.1 98 0.1 CALM 0 0 0 0 1018.9 1018.9 1.8
17/04:00am 7.4 6.0 7.1 98 0.1 ESE 4 7 2 4 1018.3 1018.3 1.8
17/03:30am 7.6 7.0 7.2 97 0.2 CALM 0 7 0 4 1018.2 1018.2 1.8
17/03:00am 7.7 7.0 6.8 94 0.4 CALM 0 0 0 0 1018.2 1018.2 1.8
17/02:30am 8.0 7.2 6.6 91 0.6 CALM 0 0 0 0 1018.2 1018.2 1.8

Latest Capital City Observations: Canberra | Sydney | Melbourne | Brisbane | Adelaide | Perth | Hobart | Darwin

Other formats

Comma delimited format used in spreadsheet applications
http://www.bom.gov.au/fwo/IDV60901/IDV60901.95936.axf

JavaScript Object Notation format (JSON) in row-major order
http://www.bom.gov.au/fwo/IDV60901/IDV60901.95936.json

Data quality

Most of these data are generated automatically and are frequently updated. Quality checks on data are not normally performed. It is possible for incorrect values to appear. Refer to information at About Latest Weather Observations and please check the disclaimer before using these data.